Time;durP1;ratioP1;P1;durP2;ratioP2;P2;SDS_P1;SDS_P2;PMS_P1;PMS_P2;Temp;Humidity;BMP_temperature;BMP_pressure;BME280_temperature;BME280_humidity;BME280_pressure;Samples;Min_cycle;Max_cycle;Signal;HPM_P1;HPM_P2
2021/05/29 00:01:10;;;;;;;5.90;2.23;;;12.10;99.90;;;;;;4994718;28;20428;-70
2021/05/29 00:03:36;;;;;;;5.88;2.10;;;12.10;99.90;;;;;;4996781;28;20175;-69
2021/05/29 00:06:02;;;;;;;5.47;1.70;;;12.20;99.90;;;;;;5006331;28;20194;-68
2021/05/29 00:08:28;;;;;;;6.82;2.30;;;12.10;99.90;;;;;;5016704;28;20167;-69
2021/05/29 00:10:56;;;;;;;7.20;2.50;;;12.10;99.90;;;;;;5016889;28;20179;-69
2021/05/29 00:13:23;;;;;;;6.70;2.78;;;12.10;99.90;;;;;;5016488;28;20206;-68
2021/05/29 00:15:49;;;;;;;6.30;2.50;;;12.10;99.90;;;;;;5016596;28;20661;-68
2021/05/29 00:18:15;;;;;;;5.40;2.40;;;12.20;99.90;;;;;;5016590;28;20209;-67
2021/05/29 00:20:41;;;;;;;6.10;2.70;;;12.20;99.90;;;;;;4995475;28;20984;-69
2021/05/29 00:23:09;;;;;;;5.60;2.00;;;12.20;99.90;;;;;;4996522;28;20502;-68
2021/05/29 00:25:36;;;;;;;8.25;2.45;;;12.20;99.90;;;;;;4996853;28;20192;-67
2021/05/29 00:28:01;;;;;;;5.05;1.92;;;12.20;99.90;;;;;;4996774;28;20535;-69
2021/05/29 00:30:27;;;;;;;5.77;1.60;;;12.10;99.90;;;;;;5016232;28;20183;-68
2021/05/29 00:32:53;;;;;;;5.97;2.13;;;12.10;99.90;;;;;;5016020;28;20418;-68
2021/05/29 00:35:19;;;;;;;6.93;2.30;;;12.10;99.90;;;;;;5016323;28;20552;-69
2021/05/29 00:37:45;;;;;;;6.20;2.13;;;12.10;99.90;;;;;;5016196;28;20952;-67
2021/05/29 00:40:11;;;;;;;6.63;2.53;;;12.10;99.90;;;;;;5016226;28;20580;-68
2021/05/29 00:42:37;;;;;;;6.90;2.63;;;12.00;99.90;;;;;;5016219;28;20401;-68
2021/05/29 00:45:04;;;;;;;6.43;2.07;;;12.00;99.90;;;;;;4997048;28;20287;-68
2021/05/29 00:47:31;;;;;;;6.78;2.20;;;11.90;99.90;;;;;;4996601;28;20175;-68
2021/05/29 00:50:05;;;;;;;7.25;2.72;;;11.90;99.90;;;;;;4995299;28;20550;-68
2021/05/29 00:52:32;;;;;;;6.45;2.00;;;11.90;99.90;;;;;;4996317;28;20159;-68
2021/05/29 00:54:58;;;;;;;5.93;2.10;;;11.90;99.90;;;;;;4996073;28;20583;-68
2021/05/29 00:57:24;;;;;;;4.80;1.47;;;11.80;99.90;;;;;;4996353;28;20236;-67
2021/05/29 00:59:49;;;;;;;6.07;2.07;;;11.80;99.90;;;;;;5014437;28;20703;-67
2021/05/29 01:02:17;;;;;;;7.53;2.27;;;11.70;99.90;;;;;;4998222;28;20171;-69
2021/05/29 01:04:44;;;;;;;6.25;2.10;;;11.70;99.90;;;;;;5013665;28;20191;-67
2021/05/29 01:07:15;;;;;;;5.75;2.38;;;11.70;99.90;;;;;;4997951;28;20608;-69
2021/05/29 01:09:42;;;;;;;6.03;1.85;;;11.70;99.90;;;;;;5013635;28;20257;-67
2021/05/29 01:12:11;;;;;;;6.43;2.58;;;11.70;99.90;;;;;;4995705;28;20214;-68
2021/05/29 01:14:42;;;;;;;6.45;2.08;;;11.70;99.90;;;;;;4994756;28;20286;-68
2021/05/29 01:17:07;;;;;;;8.80;1.77;;;11.70;99.90;;;;;;4995960;28;20258;-67
2021/05/29 01:19:33;;;;;;;5.03;1.53;;;11.70;99.90;;;;;;4995808;28;20298;-67
2021/05/29 01:22:03;;;;;;;5.70;2.33;;;11.70;99.90;;;;;;4995677;28;20700;-69
2021/05/29 01:24:28;;;;;;;5.50;1.98;;;11.60;99.90;;;;;;4997397;28;20237;-68
2021/05/29 01:26:54;;;;;;;7.00;2.33;;;11.50;99.90;;;;;;5015292;28;20175;-67
2021/05/29 01:29:20;;;;;;;6.50;2.07;;;11.50;99.90;;;;;;5015233;28;20175;-67
2021/05/29 01:31:50;;;;;;;8.10;2.50;;;11.40;99.90;;;;;;5015084;28;20171;-67
2021/05/29 01:34:20;;;;;;;5.00;1.60;;;11.40;99.90;;;;;;4997024;28;20781;-68
2021/05/29 01:36:47;;;;;;;6.80;2.40;;;11.40;99.90;;;;;;5015106;28;20261;-68
2021/05/29 01:39:13;;;;;;;5.65;2.50;;;11.30;99.90;;;;;;5013299;28;20195;-69
2021/05/29 01:41:39;;;;;;;5.90;2.37;;;11.30;99.90;;;;;;5012502;28;20187;-68
2021/05/29 01:44:08;;;;;;;8.43;2.90;;;11.40;99.90;;;;;;5006458;28;20214;-68
2021/05/29 01:46:34;;;;;;;5.60;1.80;;;11.30;99.90;;;;;;4995122;28;20160;-68
2021/05/29 01:49:00;;;;;;;7.10;2.07;;;11.40;99.90;;;;;;4993898;28;20177;-68
2021/05/29 01:51:26;;;;;;;6.30;2.00;;;11.40;99.90;;;;;;4995262;28;20176;-68
2021/05/29 01:53:53;;;;;;;5.60;1.60;;;11.40;99.90;;;;;;4994684;28;20950;-68
2021/05/29 01:56:19;;;;;;;7.63;2.60;;;11.30;99.90;;;;;;4995359;28;20215;-68
2021/05/29 01:58:45;;;;;;;6.30;2.38;;;11.30;99.90;;;;;;4994867;28;20196;-69
2021/05/29 02:01:13;;;;;;;6.05;2.40;;;11.30;99.90;;;;;;4995103;28;20246;-68
2021/05/29 02:03:40;;;;;;;7.22;1.80;;;11.30;99.90;;;;;;4994626;28;20226;-68
2021/05/29 02:06:06;;;;;;;6.20;2.10;;;11.30;99.90;;;;;;4994967;28;20226;-67
2021/05/29 02:08:32;;;;;;;5.77;2.30;;;11.30;99.90;;;;;;4994692;28;20570;-68
2021/05/29 02:10:58;;;;;;;12.80;1.97;;;11.20;99.90;;;;;;5014403;28;20245;-68
2021/05/29 02:13:35;;;;;;;7.35;2.75;;;11.20;99.90;;;;;;5014075;28;20402;-69
2021/05/29 02:16:02;;;;;;;5.90;1.83;;;11.20;99.90;;;;;;4996682;28;20179;-68
2021/05/29 02:18:29;;;;;;;5.25;1.38;;;11.20;99.90;;;;;;5013002;28;20241;-68
2021/05/29 02:20:58;;;;;;;5.90;1.95;;;11.10;99.90;;;;;;5014277;28;20162;-69
2021/05/29 02:23:26;;;;;;;6.10;1.95;;;11.10;99.90;;;;;;5013692;28;20177;-68
2021/05/29 02:25:55;;;;;;;6.68;2.25;;;11.10;99.90;;;;;;5008142;28;20199;-68
2021/05/29 02:28:21;;;;;;;6.00;2.00;;;11.00;99.90;;;;;;4994515;28;20179;-70
2021/05/29 02:30:49;;;;;;;6.20;2.00;;;11.00;99.90;;;;;;4994642;28;20198;-69
2021/05/29 02:33:17;;;;;;;5.70;1.45;;;11.00;99.90;;;;;;4994096;28;20176;-68
2021/05/29 02:35:43;;;;;;;5.90;1.88;;;11.00;99.90;;;;;;4994393;28;20199;-68
2021/05/29 02:38:09;;;;;;;7.10;1.80;;;10.90;99.90;;;;;;4994430;28;20230;-68
2021/05/29 02:40:35;;;;;;;6.65;1.80;;;10.80;99.90;;;;;;5009208;28;20507;-69
2021/05/29 02:43:01;;;;;;;6.25;2.10;;;10.80;99.90;;;;;;4993935;28;20305;-68
2021/05/29 02:45:27;;;;;;;6.90;2.40;;;10.80;99.90;;;;;;4995212;28;20697;-70
2021/05/29 02:47:54;;;;;;;6.82;2.45;;;10.70;99.90;;;;;;4993093;28;20425;-68
2021/05/29 02:50:20;;;;;;;5.80;2.00;;;10.70;99.90;;;;;;4994438;28;20178;-69
2021/05/29 02:52:46;;;;;;;5.95;2.35;;;10.70;99.90;;;;;;4994105;28;20215;-68
2021/05/29 02:55:15;;;;;;;6.30;2.17;;;10.70;99.90;;;;;;4994300;28;20238;-69
2021/05/29 02:57:41;;;;;;;8.35;2.55;;;10.60;99.90;;;;;;4994093;28;20175;-68
2021/05/29 03:00:10;;;;;;;5.80;1.57;;;10.50;99.90;;;;;;4994191;28;20734;-69
2021/05/29 03:02:36;;;;;;;6.75;2.47;;;10.50;99.90;;;;;;4994383;28;20409;-68
2021/05/29 03:05:04;;;;;;;7.68;2.80;;;10.40;99.90;;;;;;4993804;28;20686;-71
2021/05/29 03:07:29;;;;;;;6.30;1.83;;;10.40;99.90;;;;;;4994453;28;20171;-68
2021/05/29 03:09:55;;;;;;;6.67;1.90;;;10.40;99.90;;;;;;5009737;28;20209;-68
2021/05/29 03:12:21;;;;;;;6.00;1.30;;;10.30;99.90;;;;;;5013700;28;20177;-70
2021/05/29 03:14:46;;;;;;;6.00;2.10;;;10.30;99.90;;;;;;5013425;28;20201;-68
2021/05/29 03:17:12;;;;;;;8.57;2.90;;;10.30;99.90;;;;;;5013242;28;20174;-68
2021/05/29 03:19:38;;;;;;;6.30;1.70;;;10.30;99.90;;;;;;5013555;28;20209;-69
2021/05/29 03:22:04;;;;;;;5.83;1.97;;;10.30;99.90;;;;;;5013888;28;20167;-69
2021/05/29 03:24:29;;;;;;;6.17;1.90;;;10.30;99.90;;;;;;4995514;28;20557;-67
2021/05/29 03:26:55;;;;;;;6.10;2.03;;;10.30;99.90;;;;;;5013677;28;20402;-69
2021/05/29 03:29:21;;;;;;;6.30;2.33;;;10.20;99.90;;;;;;5013936;28;20174;-68
2021/05/29 03:31:46;;;;;;;7.53;2.47;;;10.20;99.90;;;;;;5008231;28;20423;-70
2021/05/29 03:34:12;;;;;;;6.60;2.60;;;10.20;99.90;;;;;;4993162;28;20207;-68
2021/05/29 03:36:38;;;;;;;9.03;2.50;;;10.10;99.90;;;;;;4995761;28;20214;-68
2021/05/29 03:39:05;;;;;;;8.03;2.73;;;10.10;99.90;;;;;;4997663;28;20224;-69
2021/05/29 03:41:31;;;;;;;7.00;1.80;;;10.00;99.90;;;;;;4997724;28;20180;-68
2021/05/29 03:43:56;;;;;;;6.77;1.60;;;10.00;99.90;;;;;;4997186;28;20188;-70
2021/05/29 03:46:22;;;;;;;6.40;2.23;;;10.00;99.90;;;;;;4997790;28;20534;-68
2021/05/29 03:48:48;;;;;;;6.90;2.27;;;10.00;99.90;;;;;;4997682;28;20176;-69
2021/05/29 03:51:14;;;;;;;8.63;2.85;;;10.10;99.90;;;;;;4997739;28;20206;-68
2021/05/29 03:53:40;;;;;;;5.90;2.03;;;10.20;99.90;;;;;;4997208;28;20199;-69
2021/05/29 03:56:06;;;;;;;6.03;2.37;;;10.20;99.90;;;;;;4997414;28;20406;-68
2021/05/29 03:58:31;;;;;;;6.23;1.80;;;10.20;99.90;;;;;;4997531;28;20206;-70
2021/05/29 04:00:58;;;;;;;7.70;2.97;;;10.30;99.90;;;;;;4999803;28;20661;-69
2021/05/29 04:03:24;;;;;;;6.45;1.95;;;10.40;99.90;;;;;;5016449;28;20602;-68
2021/05/29 04:05:49;;;;;;;7.30;2.27;;;10.50;99.90;;;;;;5016559;28;20206;-69
2021/05/29 04:08:15;;;;;;;5.90;1.80;;;10.50;99.90;;;;;;5016867;28;20253;-68
2021/05/29 04:10:41;;;;;;;6.40;2.23;;;10.60;99.90;;;;;;5016427;28;20693;-68
2021/05/29 04:13:06;;;;;;;6.87;2.83;;;10.70;99.90;;;;;;5016527;28;20630;-68
2021/05/29 04:15:32;;;;;;;6.10;2.40;;;10.70;99.90;;;;;;5016770;28;20186;-69
2021/05/29 04:17:58;;;;;;;6.07;2.40;;;10.70;99.90;;;;;;5016627;28;20198;-68
2021/05/29 04:20:26;;;;;;;7.63;2.40;;;10.80;99.90;;;;;;5016530;28;20191;-69
2021/05/29 04:22:53;;;;;;;7.38;2.47;;;10.80;99.90;;;;;;5016230;28;20175;-70
2021/05/29 04:25:22;;;;;;;6.10;2.50;;;10.90;99.90;;;;;;5016295;28;20206;-68
2021/05/29 04:27:48;;;;;;;6.32;1.95;;;11.10;99.90;;;;;;5016530;28;20159;-68
2021/05/29 04:30:18;;;;;;;5.90;2.40;;;11.30;99.90;;;;;;5016497;28;20167;-68
2021/05/29 04:32:44;;;;;;;6.65;2.70;;;11.50;99.90;;;;;;5015786;28;20178;-69
2021/05/29 04:35:10;;;;;;;6.90;2.50;;;11.70;99.90;;;;;;5016088;28;20199;-68
2021/05/29 04:37:38;;;;;;;6.53;2.42;;;11.90;99.90;;;;;;5016324;28;20595;-68
2021/05/29 04:40:05;;;;;;;6.60;1.90;;;12.00;99.90;;;;;;5016332;28;20524;-69
2021/05/29 04:42:31;;;;;;;7.45;2.53;;;12.10;99.90;;;;;;5016132;28;20162;-68
2021/05/29 04:44:57;;;;;;;6.23;1.93;;;12.10;99.90;;;;;;5015722;28;20190;-70
2021/05/29 04:47:22;;;;;;;7.20;2.00;;;12.20;99.90;;;;;;5012028;28;20172;-68
2021/05/29 04:49:48;;;;;;;7.73;2.60;;;12.30;99.90;;;;;;4996154;28;20191;-68
2021/05/29 04:52:14;;;;;;;7.50;2.20;;;12.40;99.90;;;;;;4996338;28;20193;-70
2021/05/29 04:54:39;;;;;;;6.73;1.93;;;12.60;99.90;;;;;;4995884;28;20188;-68
2021/05/29 04:57:05;;;;;;;6.73;1.83;;;12.70;99.90;;;;;;4996809;28;20174;-69
2021/05/29 04:59:31;;;;;;;10.23;2.50;;;12.80;99.90;;;;;;4996412;28;21006;-68
2021/05/29 05:01:57;;;;;;;6.70;2.37;;;12.90;99.90;;;;;;4996505;28;20420;-69
2021/05/29 05:04:23;;;;;;;7.50;2.07;;;13.00;99.90;;;;;;4995918;28;20199;-68
2021/05/29 05:06:48;;;;;;;6.50;2.53;;;13.00;99.90;;;;;;4996120;28;20919;-69
2021/05/29 05:09:14;;;;;;;7.67;1.73;;;13.10;99.90;;;;;;4996092;28;20585;-68
2021/05/29 05:11:40;;;;;;;6.60;2.00;;;13.30;99.90;;;;;;5011318;28;20171;-70
2021/05/29 05:14:05;;;;;;;7.00;1.77;;;13.30;99.90;;;;;;4995590;28;20435;-68
2021/05/29 05:16:31;;;;;;;6.80;2.60;;;13.40;99.90;;;;;;5012007;28;20184;-69
2021/05/29 05:18:57;;;;;;;6.60;2.50;;;13.40;99.90;;;;;;5015366;28;20253;-69
2021/05/29 05:21:22;;;;;;;7.83;2.70;;;13.50;99.90;;;;;;5015712;28;20232;-68
2021/05/29 05:23:52;;;;;;;5.90;2.20;;;13.50;99.90;;;;;;5015006;28;20530;-71
2021/05/29 05:26:17;;;;;;;6.47;2.07;;;13.50;99.90;;;;;;5015462;28;20206;-68
2021/05/29 05:28:44;;;;;;;7.07;2.53;;;13.50;99.90;;;;;;5015389;28;20406;-69
2021/05/29 05:31:11;;;;;;;7.23;2.00;;;13.60;99.90;;;;;;5014818;28;20926;-68
2021/05/29 05:33:45;;;;;;;6.10;2.30;;;13.50;99.90;;;;;;5014923;28;20411;-69
2021/05/29 05:36:12;;;;;;;8.20;2.43;;;13.70;99.90;;;;;;5015126;28;20402;-68
2021/05/29 05:38:40;;;;;;;6.47;2.37;;;14.00;99.90;;;;;;5015179;28;20502;-70
2021/05/29 05:41:06;;;;;;;6.73;1.90;;;14.30;99.90;;;;;;5001890;28;20543;-69
2021/05/29 05:43:33;;;;;;;5.80;2.00;;;14.60;99.90;;;;;;4995115;28;20496;-69
2021/05/29 05:45:59;;;;;;;9.13;1.73;;;14.70;99.90;;;;;;4995267;28;20492;-69
2021/05/29 05:48:24;;;;;;;8.23;2.00;;;14.70;99.90;;;;;;4995230;28;20429;-66
2021/05/29 05:50:55;;;;;;;8.33;2.00;;;14.70;99.90;;;;;;4995369;28;20636;-68
2021/05/29 05:53:22;;;;;;;6.37;2.03;;;14.90;99.90;;;;;;4994994;28;20511;-70
2021/05/29 05:55:53;;;;;;;5.60;1.70;;;15.20;99.90;;;;;;4995052;28;20542;-69
2021/05/29 05:58:19;;;;;;;5.90;2.30;;;15.40;99.90;;;;;;4995116;28;20484;-69
2021/05/29 06:00:45;;;;;;;5.70;1.77;;;15.60;99.90;;;;;;4995012;28;20405;-69
2021/05/29 06:03:10;;;;;;;4.80;1.43;;;15.80;99.90;;;;;;4998575;28;20178;-69
2021/05/29 06:05:36;;;;;;;5.53;2.13;;;15.90;99.90;;;;;;5014327;28;20213;-69
2021/05/29 06:08:02;;;;;;;5.30;1.60;;;15.90;99.90;;;;;;5014636;28;20195;-68
2021/05/29 06:10:27;;;;;;;5.27;1.80;;;15.80;99.90;;;;;;5014600;28;20213;-68
2021/05/29 06:12:54;;;;;;;5.60;2.07;;;15.60;99.90;;;;;;5013977;28;20498;-67
2021/05/29 06:20:30;;;;;;;7.23;1.87;;;15.10;99.90;;;;;;4994192;28;20425;-68
2021/05/29 06:22:56;;;;;;;5.93;1.67;;;15.20;99.90;;;;;;4994304;28;20408;-68
2021/05/29 06:25:22;;;;;;;5.83;1.90;;;15.40;99.90;;;;;;5001051;28;20445;-69
2021/05/29 06:27:48;;;;;;;6.00;2.00;;;15.50;99.90;;;;;;5014311;28;20178;-69
2021/05/29 06:30:14;;;;;;;5.60;1.67;;;15.60;99.90;;;;;;5014234;28;20441;-67
2021/05/29 06:32:40;;;;;;;7.23;1.90;;;15.60;99.90;;;;;;5014204;28;20170;-69
2021/05/29 06:35:07;;;;;;;5.27;1.60;;;15.60;99.90;;;;;;5013798;28;20779;-70
2021/05/29 06:37:35;;;;;;;4.97;1.37;;;15.70;99.70;;;;;;5014011;28;20406;-69
2021/05/29 06:40:02;;;;;;;4.70;1.50;;;15.80;99.70;;;;;;5007229;28;20465;-69
2021/05/29 06:42:28;;;;;;;4.90;1.57;;;15.90;99.90;;;;;;4994293;28;20444;-66
2021/05/29 06:44:53;;;;;;;4.90;1.37;;;16.00;99.10;;;;;;4993852;28;20458;-69
2021/05/29 06:47:19;;;;;;;5.33;1.20;;;16.00;99.20;;;;;;4994294;28;20750;-68
2021/05/29 06:49:44;;;;;;;5.33;1.60;;;16.10;98.50;;;;;;5010615;28;20522;-67
2021/05/29 06:52:13;;;;;;;6.80;2.17;;;16.10;99.00;;;;;;5013978;28;20197;-68
2021/05/29 06:54:52;;;;;;;5.23;1.60;;;16.10;98.30;;;;;;5013367;28;20201;-67
2021/05/29 07:00:03;;;;;;;5.23;1.53;;;16.50;99.40;;;;;;5013852;28;20459;-69
2021/05/29 07:02:28;;;;;;;5.13;1.37;;;16.70;98.50;;;;;;5013400;28;20485;-68
2021/05/29 07:04:54;;;;;;;7.93;1.80;;;16.80;97.80;;;;;;5013121;28;20439;-68
2021/05/29 07:07:20;;;;;;;8.77;3.50;;;16.80;97.40;;;;;;4996385;28;20173;-70
2021/05/29 07:09:46;;;;;;;5.53;1.83;;;16.80;97.70;;;;;;5013522;28;20198;-68
2021/05/29 07:12:12;;;;;;;4.90;1.50;;;16.80;97.70;;;;;;5013226;28;20174;-68
2021/05/29 07:14:37;;;;;;;5.30;1.50;;;16.90;97.70;;;;;;5013140;28;20497;-69
2021/05/29 07:17:06;;;;;;;5.13;1.77;;;17.10;97.60;;;;;;5013594;28;20637;-69
2021/05/29 07:19:31;;;;;;;4.70;1.40;;;17.30;96.50;;;;;;5013020;28;20205;-68
2021/05/29 07:21:57;;;;;;;5.50;1.90;;;17.40;98.20;;;;;;5013416;28;20445;-68
2021/05/29 07:24:23;;;;;;;5.20;1.77;;;17.80;98.00;;;;;;5012924;28;20187;-68
2021/05/29 07:26:50;;;;;;;6.27;2.40;;;18.50;98.00;;;;;;5013301;28;20220;-70
2021/05/29 07:29:16;;;;;;;8.10;2.20;;;19.50;97.20;;;;;;5013454;28;20412;-68
2021/05/29 07:31:43;;;;;;;4.70;1.43;;;20.70;95.20;;;;;;5013254;28;20414;-70
2021/05/29 07:34:09;;;;;;;4.33;1.47;;;21.90;89.10;;;;;;4994824;28;20442;-70
2021/05/29 07:36:35;;;;;;;4.13;1.30;;;23.00;86.80;;;;;;4992108;28;20425;-69
2021/05/29 07:39:00;;;;;;;3.87;1.20;;;24.20;80.80;;;;;;4993885;28;20432;-69
2021/05/29 07:41:26;;;;;;;4.40;1.40;;;25.40;77.00;;;;;;5001400;28;20171;-68
2021/05/29 07:43:52;;;;;;;4.00;1.77;;;26.60;70.10;;;;;;5012720;28;20179;-70
2021/05/29 07:46:19;;;;;;;4.20;1.60;;;27.30;70.40;;;;;;5013345;28;20175;-67
2021/05/29 07:48:45;;;;;;;3.43;1.13;;;28.20;69.30;;;;;;5013311;28;20226;-68
2021/05/29 07:51:11;;;;;;;5.10;1.63;;;29.10;65.40;;;;;;4994114;28;20455;-66
2021/05/29 07:53:41;;;;;;;3.67;1.63;;;30.00;61.70;;;;;;4993288;28;20385;-66
2021/05/29 07:56:09;;;;;;;3.47;1.77;;;30.80;59.50;;;;;;4993740;28;20203;-67
2021/05/29 07:58:35;;;;;;;3.27;1.43;;;31.30;56.80;;;;;;4993646;28;20475;-69
2021/05/29 08:01:01;;;;;;;3.63;1.90;;;31.20;55.70;;;;;;4993667;28;20811;-68
2021/05/29 08:03:29;;;;;;;3.30;1.67;;;31.40;54.70;;;;;;4993183;28;20443;-68
2021/05/29 08:05:55;;;;;;;3.00;1.40;;;31.70;52.50;;;;;;5011804;28;20207;-68
2021/05/29 08:08:23;;;;;;;3.50;1.50;;;32.30;50.30;;;;;;5013146;28;20833;-69
2021/05/29 08:10:50;;;;;;;3.30;1.80;;;31.70;50.10;;;;;;5013167;28;20412;-68
2021/05/29 08:13:19;;;;;;;3.10;1.30;;;31.20;48.60;;;;;;5012826;28;20409;-69
2021/05/29 08:15:47;;;;;;;3.07;1.57;;;31.00;49.80;;;;;;5012968;28;20404;-69
2021/05/29 08:18:16;;;;;;;3.53;1.73;;;30.20;50.00;;;;;;5013122;28;20902;-68
2021/05/29 08:20:43;;;;;;;3.57;1.80;;;29.60;51.20;;;;;;4993973;28;20401;-69
2021/05/29 08:23:08;;;;;;;3.70;1.53;;;29.10;51.20;;;;;;4994053;28;20428;-69
2021/05/29 08:25:34;;;;;;;3.33;1.40;;;29.50;51.50;;;;;;4996952;28;20448;-69
2021/05/29 08:28:01;;;;;;;3.00;1.20;;;29.60;50.40;;;;;;5006088;28;20183;-71
2021/05/29 08:30:27;;;;;;;3.67;1.87;;;29.00;49.80;;;;;;5016314;28;20206;-68
2021/05/29 08:32:53;;;;;;;2.93;1.00;;;28.50;49.90;;;;;;5016261;28;20376;-69
2021/05/29 08:35:19;;;;;;;3.30;1.30;;;28.10;50.60;;;;;;4998561;28;20935;-69
2021/05/29 08:37:45;;;;;;;2.90;1.10;;;27.80;51.30;;;;;;5016197;28;20419;-67
2021/05/29 08:40:13;;;;;;;3.23;1.33;;;28.00;50.50;;;;;;5016220;28;20400;-69
2021/05/29 08:42:42;;;;;;;3.27;1.50;;;28.20;49.80;;;;;;5006981;28;20397;-68
2021/05/29 08:45:09;;;;;;;3.20;1.40;;;28.40;49.30;;;;;;4999651;28;20432;-67
2021/05/29 08:47:35;;;;;;;4.43;1.40;;;27.80;49.00;;;;;;5016484;28;20376;-68
2021/05/29 08:50:00;;;;;;;3.00;1.30;;;26.70;49.90;;;;;;5016022;28;20424;-69
2021/05/29 08:52:26;;;;;;;3.07;1.17;;;26.50;50.90;;;;;;5016204;28;20420;-67
2021/05/29 08:54:52;;;;;;;3.23;1.10;;;26.50;49.70;;;;;;4997937;28;20203;-67
2021/05/29 08:57:19;;;;;;;3.07;1.30;;;27.10;48.90;;;;;;5011136;28;20187;-68
2021/05/29 08:59:45;;;;;;;2.80;1.03;;;27.80;48.80;;;;;;4995040;28;20187;-68
2021/05/29 09:02:11;;;;;;;3.07;1.10;;;28.40;47.10;;;;;;4994912;28;20423;-69
2021/05/29 09:04:59;;;;;;;3.67;1.50;;;28.90;46.30;;;;;;4995757;28;20195;-68
2021/05/29 09:07:26;;;;;;;2.80;1.00;;;29.40;46.60;;;;;;4996373;28;20421;-68
2021/05/29 09:10:21;;;;;;;3.20;1.10;;;29.30;44.70;;;;;;4996951;28;20429;-69
2021/05/29 09:13:13;;;;;;;2.90;1.30;;;29.00;44.20;;;;;;5009149;28;20451;-67
2021/05/29 09:15:46;;;;;;;3.33;1.50;;;29.40;45.50;;;;;;5015611;28;20395;-68
2021/05/29 09:18:35;;;;;;;4.03;1.50;;;29.80;44.80;;;;;;5015588;28;20391;-68
2021/05/29 09:21:20;;;;;;;2.90;1.30;;;29.80;43.80;;;;;;5002730;28;20402;-67
2021/05/29 09:23:57;;;;;;;3.30;1.47;;;30.10;44.80;;;;;;4995516;28;20414;-70
2021/05/29 09:26:44;;;;;;;2.70;1.13;;;30.30;44.60;;;;;;4995966;28;20403;-69
2021/05/29 09:29:31;;;;;;;3.40;2.10;;;30.40;44.30;;;;;;4995843;28;20429;-68
2021/05/29 09:32:05;;;;;;;3.10;1.50;;;30.20;44.70;;;;;;4995435;28;20423;-68
2021/05/29 09:34:43;;;;;;;4.80;1.60;;;30.00;45.30;;;;;;4994678;28;20768;-69
2021/05/29 09:37:26;;;;;;;3.40;1.47;;;30.20;45.40;;;;;;4995852;28;20385;-72
2021/05/29 09:39:55;;;;;;;2.80;1.40;;;30.80;44.20;;;;;;4995543;28;20458;-68
2021/05/29 09:42:46;;;;;;;3.80;1.50;;;30.60;44.30;;;;;;4995573;28;20492;-68
2021/05/29 09:45:27;;;;;;;2.93;1.67;;;31.00;44.10;;;;;;4999186;28;20852;-69
2021/05/29 09:48:11;;;;;;;3.50;1.80;;;30.90;46.20;;;;;;5014039;28;20415;-68
2021/05/29 09:50:56;;;;;;;3.13;1.40;;;29.60;46.90;;;;;;5015113;28;20593;-67
2021/05/29 09:53:29;;;;;;;3.50;1.40;;;28.20;48.20;;;;;;5014376;28;20387;-66
2021/05/29 09:55:55;;;;;;;3.30;1.50;;;26.80;50.00;;;;;;5014612;28;20405;-66
2021/05/29 09:58:27;;;;;;;3.30;1.33;;;25.60;52.10;;;;;;5014838;28;20425;-67
2021/05/29 10:00:53;;;;;;;3.10;1.30;;;24.60;52.30;;;;;;5013438;28;20516;-66
2021/05/29 10:03:19;;;;;;;2.80;1.00;;;24.50;54.90;;;;;;5014402;28;20971;-68
2021/05/29 10:05:51;;;;;;;3.03;1.17;;;25.30;53.00;;;;;;5014297;28;20681;-68
2021/05/29 10:08:18;;;;;;;3.43;1.47;;;26.10;52.90;;;;;;5014393;28;20437;-68
2021/05/29 10:10:43;;;;;;;2.80;1.33;;;27.20;49.80;;;;;;5014700;28;20756;-68
2021/05/29 10:13:09;;;;;;;2.87;1.03;;;28.20;48.20;;;;;;5013991;28;20417;-67
2021/05/29 10:15:35;;;;;;;4.40;1.50;;;28.90;47.30;;;;;;5001343;28;20207;-68
2021/05/29 10:18:03;;;;;;;3.27;1.33;;;28.80;47.30;;;;;;4994892;28;20214;-67
2021/05/29 10:20:32;;;;;;;2.70;0.90;;;28.40;47.00;;;;;;4994744;28;20419;-68
2021/05/29 10:22:59;;;;;;;2.80;1.03;;;27.40;48.40;;;;;;4994290;28;20430;-66
2021/05/29 10:25:25;;;;;;;2.83;1.10;;;26.00;48.80;;;;;;5001812;28;20478;-69
2021/05/29 10:27:54;;;;;;;2.80;0.80;;;25.00;50.20;;;;;;5014004;28;20419;-66
2021/05/29 10:30:21;;;;;;;3.00;1.20;;;24.20;50.90;;;;;;5014187;28;20472;-67
2021/05/29 10:33:12;;;;;;;3.20;1.20;;;23.40;52.00;;;;;;5014014;28;20409;-67
2021/05/29 10:35:39;;;;;;;2.50;0.70;;;22.50;53.30;;;;;;5014039;28;20528;-69
2021/05/29 10:38:07;;;;;;;3.00;1.17;;;22.90;54.40;;;;;;5013199;28;20451;-67
2021/05/29 10:40:36;;;;;;;3.10;1.17;;;23.50;53.10;;;;;;5013779;28;20425;-68
2021/05/29 10:43:15;;;;;;;2.80;1.20;;;23.80;54.20;;;;;;5013111;28;20542;-67
2021/05/29 10:45:49;;;;;;;2.70;0.83;;;23.70;53.10;;;;;;5012904;28;20434;-66
2021/05/29 10:48:22;;;;;;;3.20;1.20;;;23.40;52.30;;;;;;5013950;28;20453;-66
2021/05/29 10:53:48;;;;;;;2.60;0.90;;;24.20;51.60;;;;;;4993978;28;20433;-69
2021/05/29 10:56:22;;;;;;;2.87;0.87;;;25.10;50.50;;;;;;4994326;28;20736;-67
2021/05/29 10:59:13;;;;;;;2.87;0.97;;;25.50;48.20;;;;;;4994448;28;20460;-67
2021/05/29 11:01:40;;;;;;;2.80;1.00;;;24.80;48.70;;;;;;4994479;28;20410;-68
2021/05/29 11:04:12;;;;;;;3.20;1.50;;;23.90;48.30;;;;;;4993644;28;20427;-65
2021/05/29 11:06:41;;;;;;;2.90;1.20;;;23.50;49.50;;;;;;4994122;28;20445;-68
2021/05/29 11:09:06;;;;;;;2.50;0.60;;;23.40;50.40;;;;;;4992702;28;20467;-68
2021/05/29 11:14:14;;;;;;;2.90;1.00;;;22.50;50.70;;;;;;4998378;28;20195;-68
2021/05/29 11:16:46;;;;;;;2.90;1.40;;;22.00;51.20;;;;;;5013552;28;20439;-68
2021/05/29 11:19:14;;;;;;;2.53;0.73;;;21.70;52.40;;;;;;5013649;28;20427;-67
2021/05/29 11:22:16;;;;;;;3.33;1.23;;;21.80;52.60;;;;;;5013430;28;20486;-66
2021/05/29 11:24:48;;;;;;;3.17;1.23;;;21.60;51.50;;;;;;5011889;28;20433;-67
2021/05/29 11:27:24;;;;;;;2.40;0.50;;;21.50;52.30;;;;;;5013359;28;20815;-68
2021/05/29 11:29:53;;;;;;;4.67;0.70;;;21.20;53.30;;;;;;4991980;28;20547;-66
2021/05/29 11:32:56;;;;;;;3.20;1.17;;;20.80;52.80;;;;;;4993804;28;20403;-66
2021/05/29 11:35:40;;;;;;;2.70;0.80;;;20.40;54.90;;;;;;4993506;28;20418;-67
2021/05/29 11:38:21;;;;;;;2.80;1.00;;;20.10;54.30;;;;;;5005928;28;20459;-67
2021/05/29 11:40:58;;;;;;;2.60;0.70;;;20.00;53.80;;;;;;5013216;28;20405;-66
2021/05/29 11:43:49;;;;;;;5.17;0.70;;;20.00;54.00;;;;;;5012888;28;20439;-68
2021/05/29 11:46:19;;;;;;;2.70;0.80;;;20.20;53.40;;;;;;5013159;28;20396;-66
2021/05/29 11:48:48;;;;;;;2.50;0.60;;;20.40;53.60;;;;;;5012990;28;20500;-67
2021/05/29 11:51:18;;;;;;;3.00;0.80;;;20.40;53.70;;;;;;5013286;28;20891;-67
2021/05/29 11:53:48;;;;;;;2.60;0.70;;;20.50;53.80;;;;;;5012388;28;20426;-67
2021/05/29 11:56:18;;;;;;;3.50;0.83;;;20.50;55.80;;;;;;5012685;28;20754;-67
2021/05/29 11:58:53;;;;;;;3.20;0.80;;;20.60;56.20;;;;;;5016778;28;20479;-67
2021/05/29 12:01:29;;;;;;;2.70;0.63;;;20.60;55.40;;;;;;5015734;28;20449;-66
2021/05/29 12:03:58;;;;;;;2.70;0.57;;;20.70;55.90;;;;;;5015146;28;20440;-66
2021/05/29 12:06:51;;;;;;;2.70;0.70;;;20.70;56.80;;;;;;5013985;28;20459;-67
2021/05/29 12:09:16;;;;;;;3.10;1.00;;;20.80;53.90;;;;;;4997267;28;20465;-68
2021/05/29 12:11:45;;;;;;;3.13;0.93;;;20.70;53.80;;;;;;4997298;28;20406;-67
2021/05/29 12:14:16;;;;;;;2.80;0.80;;;20.80;54.60;;;;;;4996710;28;20195;-67
2021/05/29 12:16:50;;;;;;;2.93;0.87;;;21.00;56.20;;;;;;4997291;28;20417;-68
2021/05/29 12:19:38;;;;;;;3.33;1.00;;;21.10;54.60;;;;;;4996913;28;20465;-68
2021/05/29 12:22:09;;;;;;;2.70;0.90;;;21.10;54.30;;;;;;5006493;28;20433;-68
2021/05/29 12:24:51;;;;;;;2.60;0.60;;;21.00;53.10;;;;;;5015165;28;20440;-66
2021/05/29 12:27:25;;;;;;;2.90;0.83;;;20.60;53.20;;;;;;5010379;28;20466;-66
2021/05/29 12:29:59;;;;;;;2.87;0.80;;;20.30;53.60;;;;;;4996881;28;20820;-67
2021/05/29 12:32:29;;;;;;;2.80;0.70;;;20.10;53.90;;;;;;4996951;28;20420;-67
2021/05/29 12:34:54;;;;;;;3.27;0.90;;;19.90;54.90;;;;;;4996287;28;20521;-67
2021/05/29 12:37:28;;;;;;;2.80;0.80;;;20.00;55.40;;;;;;4996549;28;20902;-67
2021/05/29 12:40:02;;;;;;;3.03;0.97;;;20.20;55.50;;;;;;5011892;28;20176;-67
2021/05/29 12:42:42;;;;;;;2.90;0.70;;;20.20;54.30;;;;;;5005371;28;21001;-68
2021/05/29 12:45:19;;;;;;;2.67;0.47;;;20.30;54.10;;;;;;5016042;28;20515;-68
2021/05/29 12:47:59;;;;;;;2.70;0.87;;;20.30;53.70;;;;;;5016083;28;20768;-67
2021/05/29 12:50:59;;;;;;;2.60;0.50;;;20.30;54.90;;;;;;5010412;28;20426;-66
2021/05/29 12:53:25;;;;;;;2.90;0.60;;;20.30;53.40;;;;;;4995954;28;20513;-66
2021/05/29 12:56:11;;;;;;;2.97;0.80;;;20.20;53.50;;;;;;4996193;28;20481;-66
2021/05/29 12:58:38;;;;;;;2.60;0.57;;;20.20;54.00;;;;;;4996473;28;20422;-66
2021/05/29 13:09:43;;;;;;;2.70;0.70;;;20.60;52.80;;;;;;5014673;28;20474;-68
2021/05/29 13:12:14;;;;;;;2.77;0.63;;;20.50;52.50;;;;;;5015745;28;20421;-67
2021/05/29 13:14:41;;;;;;;2.77;0.67;;;20.40;52.30;;;;;;5009237;28;20442;-70
2021/05/29 13:17:09;;;;;;;3.27;0.63;;;20.40;52.00;;;;;;4995990;28;20413;-65
2021/05/29 13:19:52;;;;;;;2.60;0.50;;;20.40;52.10;;;;;;4994910;28;20449;-67